Time;durP1;ratioP1;P1;durP2;ratioP2;P2;SDS_P1;SDS_P2;PMS_P1;PMS_P2;Temp;Humidity;BMP_temperature;BMP_pressure;BME280_temperature;BME280_humidity;BME280_pressure;Samples;Min_cycle;Max_cycle;Signal;HPM_P1;HPM_P2
2022/04/14 00:00:28;;;;;;;11.07;6.40;;;21.80;41.90;;;;;;5006467;28;20271;-46
2022/04/14 00:02:54;;;;;;;7.10;5.43;;;21.70;42.00;;;;;;5007970;28;20533;-46
2022/04/14 00:05:20;;;;;;;6.00;5.30;;;21.70;42.20;;;;;;5007602;28;20230;-46
2022/04/14 00:07:46;;;;;;;7.23;5.23;;;21.70;42.00;;;;;;5008265;28;20429;-46
2022/04/14 00:10:13;;;;;;;8.53;5.50;;;21.50;42.20;;;;;;5013540;28;20453;-45
2022/04/14 00:12:39;;;;;;;5.90;5.30;;;21.30;42.30;;;;;;5008882;28;20202;-46
2022/04/14 00:15:05;;;;;;;8.00;4.97;;;21.10;42.90;;;;;;5006908;28;20451;-45
2022/04/14 00:17:33;;;;;;;7.10;5.73;;;20.80;43.30;;;;;;5002283;28;20464;-45
2022/04/14 00:19:59;;;;;;;7.33;5.77;;;20.60;43.80;;;;;;5007461;28;20445;-45
2022/04/14 00:22:25;;;;;;;6.43;5.70;;;20.40;44.10;;;;;;5008705;28;20447;-45
2022/04/14 00:24:51;;;;;;;6.83;5.77;;;20.30;44.20;;;;;;5009459;28;20452;-47
2022/04/14 00:27:20;;;;;;;8.10;5.43;;;20.20;44.30;;;;;;5009936;28;20198;-45
2022/04/14 00:29:49;;;;;;;6.97;5.23;;;20.10;44.50;;;;;;5007496;28;20225;-46
2022/04/14 00:32:15;;;;;;;7.97;5.27;;;20.00;44.70;;;;;;5006099;28;20434;-49
2022/04/14 00:34:40;;;;;;;4.63;4.30;;;19.80;44.80;;;;;;5007785;28;20437;-46
2022/04/14 00:37:07;;;;;;;7.67;5.87;;;19.70;45.00;;;;;;5009149;28;20224;-46
2022/04/14 00:39:32;;;;;;;6.10;5.40;;;19.60;45.20;;;;;;5007720;28;20270;-45
2022/04/14 00:41:58;;;;;;;6.43;4.67;;;19.50;45.40;;;;;;5006518;28;20527;-45
2022/04/14 00:44:23;;;;;;;5.87;4.90;;;19.40;45.80;;;;;;5010128;28;20304;-46
2022/04/14 00:46:49;;;;;;;6.30;5.53;;;19.40;46.00;;;;;;5006611;28;20243;-46
2022/04/14 00:49:15;;;;;;;5.93;5.23;;;19.30;46.00;;;;;;5006289;28;20240;-46
2022/04/14 00:51:41;;;;;;;7.20;6.13;;;19.30;46.00;;;;;;5006259;28;20561;-48
2022/04/14 00:54:06;;;;;;;10.23;5.33;;;19.30;46.10;;;;;;5010287;28;20646;-45
2022/04/14 00:56:32;;;;;;;5.27;4.63;;;19.30;45.90;;;;;;5017093;28;20197;-45
2022/04/14 00:58:58;;;;;;;5.70;4.80;;;19.30;46.00;;;;;;5008529;28;20213;-47
2022/04/14 01:01:24;;;;;;;5.53;4.23;;;19.20;46.00;;;;;;5002696;28;20191;-46
2022/04/14 01:03:51;;;;;;;7.60;4.90;;;19.20;46.20;;;;;;5002885;28;20940;-47
2022/04/14 01:06:19;;;;;;;5.87;5.30;;;19.10;46.20;;;;;;4998725;28;20317;-46
2022/04/14 01:09:16;;;;;;;5.47;4.90;;;19.10;46.20;;;;;;4999906;28;21034;-45
2022/04/14 01:11:33;;;;;;;5.23;4.60;;;19.10;46.40;;;;;;5006189;28;20453;-46
2022/04/14 01:13:58;;;;;;;6.23;4.20;;;19.00;46.50;;;;;;5007573;28;20449;-47
2022/04/14 01:16:24;;;;;;;7.97;5.27;;;18.90;46.70;;;;;;5010424;28;20459;-45
2022/04/14 01:18:49;;;;;;;7.10;5.47;;;18.80;47.10;;;;;;5007058;28;20198;-45
2022/04/14 01:21:17;;;;;;;5.67;5.17;;;18.70;47.40;;;;;;5007262;28;20568;-45
2022/04/14 01:23:44;;;;;;;6.13;4.80;;;18.70;47.50;;;;;;5003948;28;20203;-47
2022/04/14 01:26:13;;;;;;;5.97;4.33;;;18.60;47.50;;;;;;5005973;28;20484;-46
2022/04/14 01:28:38;;;;;;;5.97;4.73;;;18.60;47.70;;;;;;5007025;28;20523;-45
2022/04/14 01:31:04;;;;;;;6.63;4.50;;;18.30;48.40;;;;;;5007060;28;20575;-49
2022/04/14 01:33:30;;;;;;;5.10;4.53;;;18.30;48.60;;;;;;5003499;28;20227;-46
2022/04/14 01:35:55;;;;;;;8.27;5.57;;;18.30;48.60;;;;;;4998337;28;20198;-46
2022/04/14 01:38:21;;;;;;;8.20;5.37;;;18.40;48.20;;;;;;5002738;28;20193;-46
2022/04/14 01:40:46;;;;;;;6.60;4.77;;;18.40;48.00;;;;;;5006500;28;20712;-47
2022/04/14 01:43:12;;;;;;;6.83;4.50;;;18.40;48.10;;;;;;5006430;28;20248;-46
2022/04/14 01:45:38;;;;;;;7.90;4.53;;;18.40;48.10;;;;;;5007103;28;20229;-47
2022/04/14 01:48:04;;;;;;;5.00;4.43;;;18.40;48.30;;;;;;5009702;28;20205;-46
2022/04/14 01:50:29;;;;;;;7.57;5.27;;;18.40;48.50;;;;;;5004379;28;20663;-45
2022/04/14 01:52:55;;;;;;;6.83;6.13;;;18.40;48.30;;;;;;5010670;28;20436;-46
2022/04/14 01:55:21;;;;;;;5.10;4.60;;;18.40;48.10;;;;;;5001198;28;20224;-46
2022/04/14 01:57:46;;;;;;;5.27;4.77;;;18.40;48.10;;;;;;5008934;28;20220;-46
2022/04/14 02:00:14;;;;;;;5.40;4.90;;;18.30;48.10;;;;;;5004827;28;20406;-45
2022/04/14 02:02:40;;;;;;;5.30;4.80;;;18.30;48.20;;;;;;5005197;28;20201;-45
2022/04/14 02:05:06;;;;;;;6.93;5.10;;;18.40;48.10;;;;;;5008339;28;20934;-45
2022/04/14 02:07:32;;;;;;;5.90;4.33;;;18.40;47.90;;;;;;5008447;28;20532;-46
2022/04/14 02:09:57;;;;;;;6.93;4.40;;;18.40;47.90;;;;;;5008227;28;20499;-45
2022/04/14 02:12:24;;;;;;;5.23;4.60;;;18.40;48.00;;;;;;5008266;28;21959;-45
2022/04/14 02:14:50;;;;;;;4.93;4.43;;;18.30;47.80;;;;;;5005698;28;20766;-45
2022/04/14 02:17:15;;;;;;;7.90;4.53;;;18.30;47.90;;;;;;5008152;28;20520;-45
2022/04/14 02:19:41;;;;;;;7.60;4.60;;;18.30;47.70;;;;;;5005943;28;20236;-45
2022/04/14 02:22:07;;;;;;;6.60;4.83;;;18.30;47.60;;;;;;5003429;28;20236;-48
2022/04/14 02:24:33;;;;;;;8.43;4.60;;;18.30;47.80;;;;;;5003062;28;20201;-45
2022/04/14 02:26:58;;;;;;;5.53;4.50;;;18.20;47.80;;;;;;5007925;28;20492;-46
2022/04/14 02:29:24;;;;;;;5.77;4.40;;;18.20;47.90;;;;;;5001698;28;20680;-50
2022/04/14 02:31:51;;;;;;;14.40;4.53;;;18.10;48.20;;;;;;5002873;28;20194;-45
2022/04/14 02:34:17;;;;;;;7.67;4.87;;;18.10;48.20;;;;;;5004647;28;20198;-46
2022/04/14 02:36:43;;;;;;;4.50;4.10;;;17.90;48.40;;;;;;5001785;28;21329;-48
2022/04/14 02:39:09;;;;;;;6.03;5.00;;;17.90;48.60;;;;;;5006880;28;20202;-45
2022/04/14 02:41:35;;;;;;;5.93;5.07;;;17.80;48.50;;;;;;5005294;28;20193;-47
2022/04/14 02:44:01;;;;;;;5.53;4.87;;;17.80;48.70;;;;;;5008036;28;20487;-45
2022/04/14 02:46:26;;;;;;;5.93;4.50;;;17.70;48.90;;;;;;5005775;28;20230;-49
2022/04/14 02:48:52;;;;;;;9.43;5.30;;;17.60;49.10;;;;;;5006681;28;20198;-46
2022/04/14 02:51:17;;;;;;;5.70;5.10;;;17.50;49.60;;;;;;5007271;28;20213;-46
2022/04/14 02:53:43;;;;;;;8.00;4.90;;;17.50;49.20;;;;;;5004599;28;20190;-45
2022/04/14 02:56:10;;;;;;;5.77;4.93;;;17.40;49.30;;;;;;5006606;28;20264;-45
2022/04/14 02:58:37;;;;;;;6.43;4.60;;;17.30;49.40;;;;;;5006516;28;20194;-45
2022/04/14 03:01:03;;;;;;;7.57;5.43;;;17.20;49.60;;;;;;5006874;28;20548;-45
2022/04/14 03:03:29;;;;;;;4.30;3.90;;;17.10;49.90;;;;;;5003689;28;20487;-45
2022/04/14 03:05:55;;;;;;;5.27;4.60;;;17.00;50.10;;;;;;5002275;28;20555;-45
2022/04/14 03:08:20;;;;;;;6.07;4.67;;;16.90;50.40;;;;;;5003028;28;20444;-46
2022/04/14 03:10:46;;;;;;;5.30;4.77;;;16.90;50.40;;;;;;5008284;28;20315;-46
2022/04/14 03:13:12;;;;;;;8.03;4.77;;;16.90;50.50;;;;;;5010516;28;20301;-45
2022/04/14 03:15:37;;;;;;;6.00;5.17;;;16.80;50.60;;;;;;5008639;28;20272;-46
2022/04/14 03:18:03;;;;;;;6.00;5.23;;;16.70;51.00;;;;;;5008901;28;20204;-45
2022/04/14 03:20:29;;;;;;;6.60;5.37;;;16.60;51.30;;;;;;5004784;28;20201;-45
2022/04/14 03:22:55;;;;;;;6.83;5.93;;;16.50;51.60;;;;;;5003370;28;20479;-45
2022/04/14 03:25:21;;;;;;;7.30;4.57;;;16.40;51.70;;;;;;5009247;28;20241;-46
2022/04/14 03:27:46;;;;;;;5.87;4.93;;;16.40;51.90;;;;;;5011015;28;20530;-46
2022/04/14 03:30:12;;;;;;;6.03;5.43;;;16.30;52.10;;;;;;5008751;28;20197;-45
2022/04/14 03:32:43;;;;;;;6.37;5.77;;;16.20;52.20;;;;;;5007303;28;20244;-46
2022/04/14 03:35:13;;;;;;;9.30;5.70;;;16.10;52.40;;;;;;5004188;28;20491;-45
2022/04/14 03:37:39;;;;;;;16.40;9.97;;;16.10;52.40;;;;;;5002995;28;20476;-47
2022/04/14 03:40:06;;;;;;;8.50;7.60;;;16.20;52.40;;;;;;5002193;28;20444;-45
2022/04/14 03:42:32;;;;;;;9.67;6.20;;;16.20;52.10;;;;;;5005843;28;20953;-46
2022/04/14 03:44:58;;;;;;;6.10;5.50;;;16.30;52.00;;;;;;5002911;28;20500;-45
2022/04/14 03:47:25;;;;;;;6.83;5.43;;;16.20;52.10;;;;;;5005260;28;20255;-46
2022/04/14 03:49:50;;;;;;;6.00;4.53;;;16.20;52.00;;;;;;5009017;28;20475;-45
2022/04/14 03:52:16;;;;;;;7.67;5.90;;;16.20;52.00;;;;;;5007636;28;20469;-46
2022/04/14 03:54:41;;;;;;;5.30;4.80;;;16.20;51.90;;;;;;5007069;28;20197;-45
2022/04/14 03:57:07;;;;;;;6.43;5.43;;;16.20;51.90;;;;;;5004347;28;20611;-47
2022/04/14 03:59:33;;;;;;;6.53;4.97;;;16.20;51.90;;;;;;5008718;28;20248;-47
2022/04/14 04:01:59;;;;;;;5.00;4.60;;;16.20;51.90;;;;;;5000759;28;20444;-45
2022/04/14 04:04:24;;;;;;;5.03;4.63;;;16.20;51.90;;;;;;5004086;28;20194;-44
2022/04/14 04:06:50;;;;;;;7.73;4.80;;;16.20;51.90;;;;;;5009006;28;20229;-45
2022/04/14 04:09:16;;;;;;;9.67;6.43;;;16.20;51.90;;;;;;5009244;28;20310;-46
2022/04/14 04:11:41;;;;;;;4.80;4.40;;;16.00;52.10;;;;;;5008186;28;20205;-45
2022/04/14 04:14:07;;;;;;;5.90;4.80;;;15.80;52.60;;;;;;5006789;28;20195;-46
2022/04/14 04:16:33;;;;;;;6.30;4.87;;;15.80;52.70;;;;;;5004190;28;20197;-46
2022/04/14 04:18:58;;;;;;;10.20;5.10;;;15.80;52.60;;;;;;5005733;28;20225;-45
2022/04/14 04:21:26;;;;;;;5.60;4.47;;;15.80;52.70;;;;;;5002836;28;20429;-46
2022/04/14 04:23:52;;;;;;;7.27;5.23;;;15.90;52.70;;;;;;5009133;28;20584;-45
2022/04/14 04:26:18;;;;;;;8.10;5.63;;;15.80;52.60;;;;;;5005588;28;20493;-46
2022/04/14 04:28:43;;;;;;;6.10;5.00;;;15.70;52.90;;;;;;5008089;28;20996;-45
2022/04/14 04:31:10;;;;;;;7.50;5.47;;;15.60;53.20;;;;;;5008481;28;20588;-46
2022/04/14 04:33:35;;;;;;;8.67;6.47;;;15.50;53.20;;;;;;5002601;28;20213;-45
2022/04/14 04:36:01;;;;;;;6.00;5.40;;;15.40;53.50;;;;;;4998982;28;20448;-48
2022/04/14 04:38:26;;;;;;;5.50;4.93;;;15.30;53.70;;;;;;5004002;28;20194;-45
2022/04/14 04:40:52;;;;;;;5.20;4.70;;;15.30;53.90;;;;;;5009428;28;20196;-45
2022/04/14 04:43:17;;;;;;;5.60;5.10;;;15.40;53.70;;;;;;5003965;28;20281;-46
2022/04/14 04:45:44;;;;;;;6.10;5.53;;;15.40;53.60;;;;;;5007193;28;20225;-45
2022/04/14 04:48:10;;;;;;;5.80;5.00;;;15.40;53.60;;;;;;5009412;28;20854;-45
2022/04/14 04:50:35;;;;;;;5.27;4.80;;;15.30;53.60;;;;;;5006542;28;20448;-45
2022/04/14 04:53:01;;;;;;;6.70;4.70;;;15.30;53.90;;;;;;5003352;28;20218;-47
2022/04/14 04:55:26;;;;;;;7.40;4.63;;;15.30;53.80;;;;;;5007149;28;20204;-45
2022/04/14 04:57:52;;;;;;;5.13;4.73;;;15.10;54.10;;;;;;5008941;28;20200;-46
2022/04/14 05:00:18;;;;;;;5.77;5.20;;;15.10;54.40;;;;;;5004409;28;20554;-45
2022/04/14 05:02:43;;;;;;;8.10;5.03;;;15.00;54.50;;;;;;5004422;28;20241;-47
2022/04/14 05:05:09;;;;;;;5.20;4.57;;;14.90;54.80;;;;;;5007268;28;20190;-46
2022/04/14 05:07:34;;;;;;;5.30;4.73;;;14.70;55.10;;;;;;5007419;28;20197;-47
2022/04/14 05:10:00;;;;;;;4.83;4.40;;;14.80;55.40;;;;;;5006780;28;20281;-45
2022/04/14 05:12:26;;;;;;;7.90;4.87;;;14.70;55.50;;;;;;5004366;28;20240;-48
2022/04/14 05:14:52;;;;;;;7.10;5.80;;;14.80;55.90;;;;;;5002381;28;20198;-45
2022/04/14 05:17:18;;;;;;;13.63;5.37;;;15.10;56.10;;;;;;5004725;28;20948;-45
2022/04/14 05:19:44;;;;;;;10.90;5.37;;;15.40;55.10;;;;;;5008018;28;20186;-45
2022/04/14 05:22:09;;;;;;;6.73;4.97;;;15.60;54.40;;;;;;5008932;28;20875;-45
2022/04/14 05:24:35;;;;;;;5.73;5.07;;;15.70;53.90;;;;;;5005640;28;20564;-46
2022/04/14 05:27:01;;;;;;;7.60;5.57;;;15.90;53.50;;;;;;4998663;28;20222;-45
2022/04/14 05:29:26;;;;;;;4.43;4.03;;;16.00;53.40;;;;;;5001881;28;20927;-45
2022/04/14 05:31:52;;;;;;;4.60;4.17;;;16.00;54.90;;;;;;5003448;28;20280;-45
2022/04/14 05:34:18;;;;;;;5.93;4.23;;;16.30;53.80;;;;;;5007143;28;20194;-44
2022/04/14 05:36:43;;;;;;;6.30;5.40;;;16.80;52.30;;;;;;5005704;28;20269;-46
2022/04/14 05:39:09;;;;;;;6.30;5.70;;;17.20;51.00;;;;;;5013283;28;20205;-46
2022/04/14 05:41:34;;;;;;;5.53;4.60;;;17.50;50.10;;;;;;5009513;28;20198;-45
2022/04/14 05:44:00;;;;;;;5.17;4.40;;;17.70;49.30;;;;;;5008925;28;20345;-46
2022/04/14 05:46:25;;;;;;;6.90;5.23;;;17.90;48.80;;;;;;5000908;28;20313;-46
2022/04/14 05:48:51;;;;;;;5.97;4.83;;;18.10;48.40;;;;;;5008286;28;20194;-45
2022/04/14 05:51:18;;;;;;;5.20;4.57;;;18.30;47.90;;;;;;5009226;28;20210;-45
2022/04/14 05:53:44;;;;;;;4.90;4.40;;;18.40;47.70;;;;;;5010432;28;20635;-46
2022/04/14 05:56:10;;;;;;;5.77;5.17;;;18.40;47.70;;;;;;5004843;28;20441;-45
2022/04/14 05:58:35;;;;;;;7.43;5.40;;;18.60;47.60;;;;;;5008984;28;20277;-45
2022/04/14 06:01:01;;;;;;;10.30;4.97;;;18.70;47.30;;;;;;5006567;28;20194;-45
2022/04/14 06:03:26;;;;;;;5.67;5.07;;;18.80;47.10;;;;;;5004717;28;20202;-44
2022/04/14 06:05:52;;;;;;;5.97;4.90;;;19.00;47.00;;;;;;5007109;28;20228;-46
2022/04/14 06:08:19;;;;;;;6.83;5.00;;;19.00;46.80;;;;;;5003477;28;20193;-49
2022/04/14 06:10:44;;;;;;;6.20;4.73;;;19.10;46.60;;;;;;5003326;28;20649;-49
2022/04/14 06:13:13;;;;;;;9.40;6.03;;;19.20;46.60;;;;;;5010135;28;20468;-50
2022/04/14 06:15:39;;;;;;;6.07;5.47;;;19.30;46.60;;;;;;5007836;28;20206;-48
2022/04/14 06:18:04;;;;;;;6.90;5.63;;;19.30;46.40;;;;;;5009201;28;21022;-49
2022/04/14 06:20:30;;;;;;;9.10;5.47;;;19.40;46.60;;;;;;5009221;28;20259;-50
2022/04/14 06:22:58;;;;;;;6.80;6.17;;;19.50;46.50;;;;;;5011096;28;20241;-49
2022/04/14 06:25:25;;;;;;;7.23;5.67;;;19.60;46.40;;;;;;5007500;28;20663;-48
2022/04/14 06:27:51;;;;;;;8.20;6.23;;;19.70;46.20;;;;;;5007392;28;20444;-49
2022/04/14 06:30:21;;;;;;;5.70;5.10;;;19.80;46.10;;;;;;5009658;28;20429;-49
2022/04/14 06:33:03;;;;;;;5.60;5.10;;;19.90;46.20;;;;;;5009809;28;20460;-49
2022/04/14 06:35:29;;;;;;;7.03;6.43;;;20.00;46.10;;;;;;5009574;28;20472;-51
2022/04/14 06:37:55;;;;;;;7.80;6.00;;;20.10;46.00;;;;;;5008396;28;20516;-49
2022/04/14 06:40:21;;;;;;;6.63;5.20;;;20.20;46.10;;;;;;5008761;28;20516;-51
2022/04/14 06:42:48;;;;;;;6.67;5.43;;;20.40;46.20;;;;;;5010082;28;20277;-51
2022/04/14 06:45:14;;;;;;;6.60;5.30;;;20.50;46.00;;;;;;5009277;28;20469;-48
2022/04/14 06:47:39;;;;;;;8.43;5.87;;;20.60;46.00;;;;;;5007750;28;20444;-50
2022/04/14 06:50:06;;;;;;;8.83;6.10;;;20.70;46.00;;;;;;5009271;28;20194;-47
2022/04/14 06:52:32;;;;;;;7.57;6.67;;;20.80;46.10;;;;;;5009790;28;20686;-49
2022/04/14 06:54:59;;;;;;;7.93;7.20;;;21.00;46.10;;;;;;5009509;28;20546;-49
2022/04/14 06:57:24;;;;;;;8.97;7.10;;;21.00;46.20;;;;;;5010023;28;20436;-47
2022/04/14 06:59:50;;;;;;;7.23;6.50;;;21.10;46.20;;;;;;5009299;28;20444;-49
2022/04/14 07:02:16;;;;;;;9.50;7.53;;;21.20;46.10;;;;;;5009038;28;20653;-47
2022/04/14 07:04:41;;;;;;;9.20;6.73;;;21.30;46.10;;;;;;5009142;28;20277;-48
2022/04/14 07:07:07;;;;;;;9.77;6.50;;;21.30;46.20;;;;;;5008532;28;20229;-47
2022/04/14 07:09:33;;;;;;;8.33;7.30;;;21.50;46.10;;;;;;5009783;28;20186;-45
2022/04/14 07:12:00;;;;;;;9.37;8.43;;;21.60;46.10;;;;;;5009620;28;20204;-50
2022/04/14 07:14:28;;;;;;;10.00;8.40;;;21.80;46.00;;;;;;5009924;28;20868;-48
2022/04/14 07:16:54;;;;;;;9.40;8.40;;;22.00;46.00;;;;;;5009054;28;20441;-46
2022/04/14 07:19:20;;;;;;;11.70;9.17;;;22.10;45.90;;;;;;5010161;28;20483;-47
2022/04/14 07:21:46;;;;;;;11.93;7.93;;;22.10;45.70;;;;;;5008260;28;20499;-48
2022/04/14 07:24:12;;;;;;;11.20;10.10;;;22.30;45.40;;;;;;5009937;28;20240;-48
2022/04/14 07:26:38;;;;;;;13.73;12.50;;;22.30;45.60;;;;;;5009290;28;20484;-47
2022/04/14 07:29:04;;;;;;;11.87;10.67;;;22.40;46.10;;;;;;5010191;28;20495;-45
2022/04/14 07:31:33;;;;;;;11.70;9.60;;;22.60;46.10;;;;;;5008312;28;20425;-49
2022/04/14 07:33:59;;;;;;;15.23;13.63;;;22.70;45.50;;;;;;5007173;28;20201;-50
2022/04/14 07:36:25;;;;;;;12.40;10.70;;;22.90;45.80;;;;;;5010754;28;20451;-46
2022/04/14 07:38:51;;;;;;;18.23;12.20;;;23.00;45.80;;;;;;5002906;28;20429;-46
2022/04/14 07:41:17;;;;;;;16.03;13.63;;;23.10;45.60;;;;;;5008081;28;20435;-46
2022/04/14 07:43:43;;;;;;;25.23;17.17;;;23.10;45.50;;;;;;5009782;28;20499;-47
2022/04/14 07:46:08;;;;;;;22.53;18.40;;;23.30;46.40;;;;;;5008689;28;20243;-50
2022/04/14 07:48:34;;;;;;;20.30;18.20;;;23.40;46.70;;;;;;5007661;28;20214;-48
2022/04/14 07:51:01;;;;;;;23.07;18.43;;;23.40;46.90;;;;;;5009217;28;20225;-45
2022/04/14 07:53:27;;;;;;;19.40;16.50;;;23.50;47.00;;;;;;5012843;28;20931;-47
2022/04/14 07:55:53;;;;;;;18.63;16.83;;;23.60;47.00;;;;;;5012573;28;20478;-45
2022/04/14 07:58:20;;;;;;;19.53;17.47;;;23.70;47.60;;;;;;5013041;28;20441;-46
2022/04/14 08:00:46;;;;;;;22.67;16.73;;;23.80;47.30;;;;;;5009934;28;20202;-48
2022/04/14 08:03:13;;;;;;;22.43;18.13;;;23.90;46.70;;;;;;5013119;28;20440;-46
2022/04/14 08:05:41;;;;;;;18.90;16.80;;;23.90;47.10;;;;;;5012605;28;20504;-49
2022/04/14 08:08:15;;;;;;;19.30;17.40;;;23.80;46.90;;;;;;5012216;28;20433;-47
2022/04/14 08:10:43;;;;;;;22.10;16.47;;;23.90;47.20;;;;;;5011581;28;20433;-45
2022/04/14 08:13:09;;;;;;;19.77;17.03;;;23.80;47.10;;;;;;5012867;28;21106;-45
2022/04/14 08:15:36;;;;;;;19.60;17.53;;;23.90;47.00;;;;;;5012289;28;20464;-45
2022/04/14 08:18:03;;;;;;;20.87;17.33;;;24.00;46.80;;;;;;5012251;28;20220;-45
2022/04/14 08:20:29;;;;;;;18.80;16.80;;;24.10;47.30;;;;;;5011305;28;20441;-45
2022/04/14 08:22:59;;;;;;;19.43;17.50;;;24.20;47.30;;;;;;5012564;28;20477;-45
2022/04/14 08:25:33;;;;;;;23.80;18.07;;;24.20;46.10;;;;;;5011133;28;20982;-47
2022/04/14 08:28:00;;;;;;;20.50;18.37;;;24.10;46.50;;;;;;5010439;28;20468;-46
2022/04/14 08:30:28;;;;;;;23.53;17.53;;;23.90;46.80;;;;;;5011733;28;20425;-47
2022/04/14 08:32:54;;;;;;;19.80;17.70;;;23.90;47.10;;;;;;5012276;28;20441;-45
2022/04/14 08:35:21;;;;;;;19.90;17.23;;;24.10;46.80;;;;;;5011383;28;20441;-50
2022/04/14 08:37:48;;;;;;;18.67;16.80;;;24.10;47.10;;;;;;5012387;28;20789;-45
2022/04/14 08:40:17;;;;;;;23.03;17.83;;;24.30;47.00;;;;;;5010891;28;20520;-50
2022/04/14 08:42:58;;;;;;;22.07;19.57;;;24.50;46.10;;;;;;5011795;28;20571;-46
2022/04/14 08:45:25;;;;;;;20.50;18.40;;;24.50;46.10;;;;;;5011001;28;20468;-45
2022/04/14 08:47:51;;;;;;;18.97;17.17;;;24.40;45.80;;;;;;5012157;28;20792;-45
2022/04/14 08:50:17;;;;;;;18.30;16.33;;;24.40;46.60;;;;;;5010584;28;20432;-47
2022/04/14 08:52:43;;;;;;;17.83;15.97;;;24.40;46.50;;;;;;5011841;28;20429;-49
2022/04/14 08:55:13;;;;;;;24.47;16.40;;;24.50;46.00;;;;;;5007089;28;20244;-46
2022/04/14 08:57:42;;;;;;;19.63;17.53;;;24.60;46.20;;;;;;5017813;28;20522;-45
2022/04/14 09:00:11;;;;;;;17.63;15.70;;;24.80;46.30;;;;;;5009692;28;20433;-47
2022/04/14 09:02:37;;;;;;;21.43;15.67;;;24.80;45.30;;;;;;5013091;28;20433;-46
2022/04/14 09:05:04;;;;;;;19.70;17.70;;;25.00;44.90;;;;;;5004616;28;20441;-45
2022/04/14 09:07:30;;;;;;;18.03;15.13;;;25.10;44.70;;;;;;5009620;28;20816;-47
2022/04/14 09:09:56;;;;;;;18.03;16.23;;;25.10;44.90;;;;;;5004288;28;20436;-45
2022/04/14 09:12:22;;;;;;;18.90;16.10;;;25.20;45.00;;;;;;5010484;28;20441;-45
2022/04/14 09:14:48;;;;;;;19.33;15.07;;;25.30;45.10;;;;;;5003826;28;20268;-45
2022/04/14 09:17:15;;;;;;;17.63;15.73;;;25.50;44.50;;;;;;5009040;28;20220;-43
2022/04/14 09:19:44;;;;;;;21.73;14.67;;;25.70;44.60;;;;;;5007707;28;20487;-45
2022/04/14 09:22:14;;;;;;;20.83;17.20;;;25.90;43.10;;;;;;5007896;28;20429;-45
2022/04/14 09:24:47;;;;;;;18.70;16.87;;;26.00;43.00;;;;;;5016585;28;20428;-44
2022/04/14 09:27:29;;;;;;;24.33;17.13;;;25.90;43.00;;;;;;5013499;28;20568;-46
2022/04/14 09:30:03;;;;;;;16.23;14.60;;;26.10;43.40;;;;;;5006948;28;20483;-47
2022/04/14 09:32:31;;;;;;;20.67;16.70;;;26.30;43.40;;;;;;5009082;28;20882;-44
2022/04/14 09:34:59;;;;;;;17.63;15.77;;;26.50;43.20;;;;;;5008648;28;20436;-45
2022/04/14 09:37:26;;;;;;;17.17;15.03;;;26.70;43.10;;;;;;5010867;28;20444;-44
2022/04/14 09:40:02;;;;;;;20.40;15.70;;;26.80;43.30;;;;;;5010296;28;20932;-44
2022/04/14 09:42:33;;;;;;;17.00;15.23;;;26.90;42.50;;;;;;5009161;28;20451;-44
2022/04/14 09:45:22;;;;;;;22.50;15.63;;;26.90;42.00;;;;;;5006902;28;20579;-46
2022/04/14 09:47:50;;;;;;;18.27;15.87;;;27.10;42.00;;;;;;5008252;28;20441;-44
2022/04/14 09:50:39;;;;;;;16.33;14.73;;;27.20;41.90;;;;;;5000562;28;20845;-49
2022/04/14 09:53:07;;;;;;;18.60;16.60;;;27.30;41.80;;;;;;5005984;28;20819;-48
2022/04/14 09:55:57;;;;;;;15.27;13.70;;;27.50;41.90;;;;;;5012416;28;20877;-46
2022/04/14 09:58:26;;;;;;;15.30;13.80;;;27.60;41.90;;;;;;5001726;28;20816;-46
2022/04/14 10:00:56;;;;;;;15.73;13.20;;;27.70;41.20;;;;;;5006513;28;20448;-48
2022/04/14 10:03:30;;;;;;;18.97;14.80;;;27.70;41.60;;;;;;5006560;28;20430;-45
2022/04/14 10:05:58;;;;;;;21.60;15.03;;;27.80;40.80;;;;;;5004435;28;21057;-45
2022/04/14 10:08:24;;;;;;;19.77;16.33;;;27.90;40.50;;;;;;5000599;28;20932;-45
2022/04/14 10:11:09;;;;;;;18.27;16.30;;;28.00;39.90;;;;;;5003458;28;20957;-45
2022/04/14 10:13:37;;;;;;;16.63;15.00;;;28.00;40.10;;;;;;5005310;28;20440;-47
2022/04/14 10:16:03;;;;;;;16.07;14.50;;;28.10;39.90;;;;;;5008348;28;20483;-45
2022/04/14 10:18:30;;;;;;;14.30;12.70;;;28.10;39.90;;;;;;5012611;28;20436;-45
2022/04/14 10:20:57;;;;;;;20.97;14.77;;;28.10;40.10;;;;;;5008892;28;20663;-45
2022/04/14 10:23:25;;;;;;;20.50;15.57;;;28.10;40.80;;;;;;5010966;28;20800;-46
2022/04/14 10:25:53;;;;;;;15.53;12.47;;;28.30;39.80;;;;;;4999067;28;20496;-45
2022/04/14 10:28:20;;;;;;;11.60;9.77;;;28.40;40.40;;;;;;5005892;28;20444;-47
2022/04/14 10:30:55;;;;;;;19.10;15.00;;;28.70;39.90;;;;;;5008428;28;20444;-45
2022/04/14 10:33:22;;;;;;;14.17;12.83;;;29.00;38.50;;;;;;5007193;28;20443;-45
2022/04/14 10:35:50;;;;;;;19.70;14.93;;;29.10;37.70;;;;;;5006717;28;20474;-45
2022/04/14 10:38:26;;;;;;;15.30;13.80;;;29.20;37.50;;;;;;5006853;28;20452;-47
2022/04/14 10:41:03;;;;;;;17.13;13.87;;;29.10;37.00;;;;;;5008367;28;20730;-45
2022/04/14 10:43:29;;;;;;;17.67;15.90;;;29.10;37.00;;;;;;4998952;28;20480;-46
2022/04/14 10:45:57;;;;;;;16.93;15.20;;;29.10;37.00;;;;;;5006989;28;20476;-46
2022/04/14 10:48:40;;;;;;;13.13;11.93;;;29.00;37.00;;;;;;5007468;28;20424;-44
2022/04/14 10:51:28;;;;;;;16.00;14.20;;;29.10;38.50;;;;;;5009355;28;20469;-46
2022/04/14 10:54:05;;;;;;;8.27;6.63;;;29.30;38.20;;;;;;5024127;28;20436;-45
2022/04/14 10:56:42;;;;;;;15.73;7.37;;;29.40;36.60;;;;;;5009224;28;20796;-45
2022/04/14 10:59:11;;;;;;;13.40;8.20;;;29.40;36.60;;;;;;5009517;28;20447;-46
2022/04/14 11:01:46;;;;;;;12.87;11.30;;;29.60;37.20;;;;;;5000682;28;20429;-46
2022/04/14 11:04:42;;;;;;;12.57;7.97;;;29.80;37.00;;;;;;5007682;28;20436;-45
2022/04/14 11:07:11;;;;;;;11.40;9.50;;;29.80;37.00;;;;;;5009484;28;21051;-48
2022/04/14 11:12:06;;;;;;;14.50;11.20;;;29.90;36.40;;;;;;5007987;28;20436;-46
2022/04/14 11:14:36;;;;;;;9.27;8.37;;;29.90;36.80;;;;;;5004410;28;20449;-46
2022/04/14 11:17:03;;;;;;;9.30;8.40;;;30.00;36.50;;;;;;5008515;28;20770;-45
2022/04/14 11:19:30;;;;;;;10.50;7.53;;;30.00;36.60;;;;;;4999667;28;20454;-46
2022/04/14 11:21:58;;;;;;;10.70;8.77;;;30.00;36.70;;;;;;5007155;28;20428;-48
2022/04/14 11:24:38;;;;;;;12.20;10.50;;;30.10;36.70;;;;;;5001732;28;20441;-48
2022/04/14 11:27:21;;;;;;;9.40;7.60;;;30.20;36.20;;;;;;5001343;28;20987;-49
2022/04/14 11:29:57;;;;;;;13.47;12.37;;;30.40;36.30;;;;;;5012764;28;20443;-48
2022/04/14 11:32:37;;;;;;;14.30;10.63;;;30.40;36.00;;;;;;5013424;28;21017;-49
2022/04/14 11:35:13;;;;;;;12.77;11.47;;;30.60;36.00;;;;;;5012611;28;20448;-46
2022/04/14 11:37:49;;;;;;;14.20;11.10;;;30.60;35.00;;;;;;5011409;28;20538;-46
2022/04/14 11:40:21;;;;;;;9.30;7.40;;;30.60;35.50;;;;;;5010727;28;20962;-49
2022/04/14 11:42:55;;;;;;;12.33;6.93;;;30.80;35.70;;;;;;5004495;28;20468;-51
2022/04/14 11:45:30;;;;;;;11.67;10.50;;;30.80;35.90;;;;;;5004001;28;20475;-45
2022/04/14 11:48:03;;;;;;;13.63;6.63;;;30.90;34.60;;;;;;5006040;28;20440;-45
2022/04/14 11:50:32;;;;;;;8.07;5.87;;;31.00;35.20;;;;;;5008343;28;20527;-50
2022/04/14 11:53:03;;;;;;;9.30;6.80;;;31.00;35.30;;;;;;5009003;28;20443;-45
2022/04/14 11:55:42;;;;;;;9.00;7.17;;;31.10;35.20;;;;;;5012088;28;20448;-47
2022/04/14 11:58:13;;;;;;;9.37;8.37;;;31.10;35.10;;;;;;5008099;28;20448;-46
2022/04/14 12:00:48;;;;;;;9.03;8.13;;;31.10;34.60;;;;;;5003306;28;20862;-47
2022/04/14 12:03:15;;;;;;;9.97;7.10;;;31.00;34.30;;;;;;5011559;28;20463;-45
2022/04/14 12:05:51;;;;;;;12.17;10.30;;;31.00;34.20;;;;;;5010256;28;20460;-48
2022/04/14 12:08:17;;;;;;;6.80;6.20;;;31.00;33.60;;;;;;5007984;28;20515;-45
2022/04/14 12:10:44;;;;;;;9.97;5.47;;;31.00;34.10;;;;;;5008405;28;20429;-47
2022/04/14 12:13:11;;;;;;;13.60;6.73;;;31.10;34.10;;;;;;5009660;28;20429;-47
2022/04/14 12:15:37;;;;;;;8.50;7.70;;;31.20;33.90;;;;;;5011759;28;20444;-45
2022/04/14 12:18:12;;;;;;;9.93;8.47;;;31.20;33.10;;;;;;5011490;28;20469;-47
2022/04/14 12:20:46;;;;;;;11.40;8.80;;;31.00;33.00;;;;;;5011111;28;20440;-47
2022/04/14 12:23:11;;;;;;;15.17;13.63;;;31.20;33.60;;;;;;5025587;28;20931;-47
2022/04/14 12:25:38;;;;;;;11.40;9.80;;;31.30;32.90;;;;;;5006056;28;20512;-51
2022/04/14 12:28:05;;;;;;;11.13;7.93;;;31.30;32.50;;;;;;5004449;28;20420;-49
2022/04/14 12:30:31;;;;;;;10.30;9.30;;;31.50;32.80;;;;;;5008163;28;20194;-47
2022/04/14 12:33:01;;;;;;;11.93;9.80;;;31.30;33.40;;;;;;5011290;28;20547;-47
2022/04/14 12:35:40;;;;;;;10.13;9.13;;;31.40;32.70;;;;;;5005308;28;20194;-44
2022/04/14 12:38:15;;;;;;;9.30;8.33;;;31.50;32.60;;;;;;5004831;28;20480;-43
2022/04/14 12:41:00;;;;;;;10.63;8.20;;;31.30;32.70;;;;;;5004088;28;20441;-45
2022/04/14 12:43:28;;;;;;;9.50;7.90;;;31.40;32.60;;;;;;5015336;28;20465;-45
2022/04/14 12:45:55;;;;;;;8.47;6.23;;;31.40;31.90;;;;;;5011476;28;20990;-45